sensor_id;sensor_type;location;lat;lon;timestamp;temperature;humidity
70762;DHT22;58360;0.000;0.000;2023-09-19T00:06:21;17.50;95.00
70762;DHT22;58360;0.000;0.000;2023-09-19T00:12:06;17.20;95.20
70762;DHT22;58360;0.000;0.000;2023-09-19T00:14:32;17.20;95.20
70762;DHT22;58360;0.000;0.000;2023-09-19T00:20:36;17.20;94.90
70762;DHT22;58360;0.000;0.000;2023-09-19T00:35:16;17.10;93.30
70762;DHT22;58360;0.000;0.000;2023-09-19T00:46:50;17.10;92.40
70762;DHT22;58360;0.000;0.000;2023-09-19T00:58:12;17.00;92.30
70762;DHT22;58360;0.000;0.000;2023-09-19T01:03:59;17.00;91.50
70762;DHT22;58360;0.000;0.000;2023-09-19T01:06:26;16.90;91.80
70762;DHT22;58360;0.000;0.000;2023-09-19T01:08:52;16.90;91.60
70762;DHT22;58360;0.000;0.000;2023-09-19T01:11:21;16.90;91.50
70762;DHT22;58360;0.000;0.000;2023-09-19T01:17:09;16.90;91.40
70762;DHT22;58360;0.000;0.000;2023-09-19T01:22:30;17.00;91.40
70762;DHT22;58360;0.000;0.000;2023-09-19T01:33:09;16.90;92.20
70762;DHT22;58360;0.000;0.000;2023-09-19T01:35:39;16.90;92.50
70762;DHT22;58360;0.000;0.000;2023-09-19T01:38:06;16.70;92.80
70762;DHT22;58360;0.000;0.000;2023-09-19T01:43:25;16.90;92.70
70762;DHT22;58360;0.000;0.000;2023-09-19T01:48:34;16.90;93.00
70762;DHT22;58360;0.000;0.000;2023-09-19T01:51:02;16.70;93.00
70762;DHT22;58360;0.000;0.000;2023-09-19T01:56:16;16.70;93.10
70762;DHT22;58360;0.000;0.000;2023-09-19T01:58:48;16.60;93.50
70762;DHT22;58360;0.000;0.000;2023-09-19T02:01:17;16.60;93.40
70762;DHT22;58360;0.000;0.000;2023-09-19T02:03:44;16.60;93.20
70762;DHT22;58360;0.000;0.000;2023-09-19T02:06:14;16.60;93.00
70762;DHT22;58360;0.000;0.000;2023-09-19T02:11:52;16.60;93.20
70762;DHT22;58360;0.000;0.000;2023-09-19T02:17:21;16.30;93.90
70762;DHT22;58360;0.000;0.000;2023-09-19T02:22:50;16.40;94.00
70762;DHT22;58360;0.000;0.000;2023-09-19T02:28:20;16.50;94.00
70762;DHT22;58360;0.000;0.000;2023-09-19T02:33:52;16.50;94.20
70762;DHT22;58360;0.000;0.000;2023-09-19T02:36:18;16.70;94.00
70762;DHT22;58360;0.000;0.000;2023-09-19T02:38:43;16.60;93.90
70762;DHT22;58360;0.000;0.000;2023-09-19T02:41:09;16.80;93.70
70762;DHT22;58360;0.000;0.000;2023-09-19T02:43:35;16.70;93.80
70762;DHT22;58360;0.000;0.000;2023-09-19T02:46:02;16.60;93.70
70762;DHT22;58360;0.000;0.000;2023-09-19T02:48:28;16.70;93.30
70762;DHT22;58360;0.000;0.000;2023-09-19T02:50:54;16.70;93.50
70762;DHT22;58360;0.000;0.000;2023-09-19T02:56:40;16.60;93.20
70762;DHT22;58360;0.000;0.000;2023-09-19T03:02:13;16.50;93.20
70762;DHT22;58360;0.000;0.000;2023-09-19T03:07:43;16.60;92.70
70762;DHT22;58360;0.000;0.000;2023-09-19T03:10:11;16.60;92.70
70762;DHT22;58360;0.000;0.000;2023-09-19T03:15:41;16.60;92.70
70762;DHT22;58360;0.000;0.000;2023-09-19T03:21:15;16.70;92.80
70762;DHT22;58360;0.000;0.000;2023-09-19T03:26:48;16.70;93.00
70762;DHT22;58360;0.000;0.000;2023-09-19T03:29:14;16.70;92.80
70762;DHT22;58360;0.000;0.000;2023-09-19T03:31:41;16.70;92.90
70762;DHT22;58360;0.000;0.000;2023-09-19T03:34:06;16.60;92.90
70762;DHT22;58360;0.000;0.000;2023-09-19T03:36:32;16.60;93.20
70762;DHT22;58360;0.000;0.000;2023-09-19T03:38:57;16.60;93.40
70762;DHT22;58360;0.000;0.000;2023-09-19T03:41:23;16.60;93.10
70762;DHT22;58360;0.000;0.000;2023-09-19T03:43:48;16.70;92.80
70762;DHT22;58360;0.000;0.000;2023-09-19T03:46:14;16.70;93.00
70762;DHT22;58360;0.000;0.000;2023-09-19T03:48:40;16.70;93.30
70762;DHT22;58360;0.000;0.000;2023-09-19T03:51:06;16.70;92.90
70762;DHT22;58360;0.000;0.000;2023-09-19T03:53:31;16.70;93.10
70762;DHT22;58360;0.000;0.000;2023-09-19T03:55:57;16.60;93.20
70762;DHT22;58360;0.000;0.000;2023-09-19T03:58:22;16.60;93.40
70762;DHT22;58360;0.000;0.000;2023-09-19T04:00:54;16.70;93.40
70762;DHT22;58360;0.000;0.000;2023-09-19T04:06:23;16.70;93.70
70762;DHT22;58360;0.000;0.000;2023-09-19T04:08:49;16.80;93.50
70762;DHT22;58360;0.000;0.000;2023-09-19T04:11:14;16.90;93.40
70762;DHT22;58360;0.000;0.000;2023-09-19T04:13:40;17.00;93.40
70762;DHT22;58360;0.000;0.000;2023-09-19T04:16:06;16.80;93.70
70762;DHT22;58360;0.000;0.000;2023-09-19T04:18:35;16.80;93.90
70762;DHT22;58360;0.000;0.000;2023-09-19T04:21:10;16.70;94.30
70762;DHT22;58360;0.000;0.000;2023-09-19T04:23:36;16.70;94.70
70762;DHT22;58360;0.000;0.000;2023-09-19T04:26:01;16.60;94.90
70762;DHT22;58360;0.000;0.000;2023-09-19T04:28:29;16.50;95.00
70762;DHT22;58360;0.000;0.000;2023-09-19T04:30:54;16.30;95.20
70762;DHT22;58360;0.000;0.000;2023-09-19T04:33:20;16.30;95.60
70762;DHT22;58360;0.000;0.000;2023-09-19T04:35:50;16.10;96.00
70762;DHT22;58360;0.000;0.000;2023-09-19T04:38:17;16.20;95.90
70762;DHT22;58360;0.000;0.000;2023-09-19T04:40:43;16.20;95.70
70762;DHT22;58360;0.000;0.000;2023-09-19T04:43:08;16.30;95.50
70762;DHT22;58360;0.000;0.000;2023-09-19T04:45:34;16.30;95.30
70762;DHT22;58360;0.000;0.000;2023-09-19T04:48:00;16.20;95.60
70762;DHT22;58360;0.000;0.000;2023-09-19T04:53:37;16.20;95.50
70762;DHT22;58360;0.000;0.000;2023-09-19T04:56:03;16.20;95.50
70762;DHT22;58360;0.000;0.000;2023-09-19T04:58:29;16.00;95.70
70762;DHT22;58360;0.000;0.000;2023-09-19T05:00:54;16.10;95.60
70762;DHT22;58360;0.000;0.000;2023-09-19T05:03:20;16.20;95.60
70762;DHT22;58360;0.000;0.000;2023-09-19T05:05:46;16.20;95.60
70762;DHT22;58360;0.000;0.000;2023-09-19T05:10:47;16.10;95.70
70762;DHT22;58360;0.000;0.000;2023-09-19T05:15:48;16.00;96.10
70762;DHT22;58360;0.000;0.000;2023-09-19T05:18:13;15.90;96.40
70762;DHT22;58360;0.000;0.000;2023-09-19T05:20:39;15.80;96.20
70762;DHT22;58360;0.000;0.000;2023-09-19T05:23:05;16.00;96.10
70762;DHT22;58360;0.000;0.000;2023-09-19T05:25:35;15.90;96.20
70762;DHT22;58360;0.000;0.000;2023-09-19T05:28:08;15.90;96.00
70762;DHT22;58360;0.000;0.000;2023-09-19T05:30:35;16.00;96.10
70762;DHT22;58360;0.000;0.000;2023-09-19T05:33:04;15.90;96.50
70762;DHT22;58360;0.000;0.000;2023-09-19T05:35:30;16.00;96.40
70762;DHT22;58360;0.000;0.000;2023-09-19T05:37:56;15.90;96.50
70762;DHT22;58360;0.000;0.000;2023-09-19T05:40:23;15.90;96.70
70762;DHT22;58360;0.000;0.000;2023-09-19T05:42:49;15.70;96.70
70762;DHT22;58360;0.000;0.000;2023-09-19T05:45:18;15.80;96.70
70762;DHT22;58360;0.000;0.000;2023-09-19T05:47:48;15.90;96.90
70762;DHT22;58360;0.000;0.000;2023-09-19T05:50:13;15.60;96.90
70762;DHT22;58360;0.000;0.000;2023-09-19T05:52:40;15.70;96.90
70762;DHT22;58360;0.000;0.000;2023-09-19T05:55:09;15.80;97.00
70762;DHT22;58360;0.000;0.000;2023-09-19T05:57:36;15.80;96.80
70762;DHT22;58360;0.000;0.000;2023-09-19T06:00:04;16.00;96.90
70762;DHT22;58360;0.000;0.000;2023-09-19T06:02:35;15.80;96.80
70762;DHT22;58360;0.000;0.000;2023-09-19T06:05:01;15.80;97.10
70762;DHT22;58360;0.000;0.000;2023-09-19T06:07:26;15.90;97.10
70762;DHT22;58360;0.000;0.000;2023-09-19T06:10:12;16.00;97.10
70762;DHT22;58360;0.000;0.000;2023-09-19T06:12:39;16.10;96.80
70762;DHT22;58360;0.000;0.000;2023-09-19T06:15:04;16.10;96.50
70762;DHT22;58360;0.000;0.000;2023-09-19T06:17:31;16.10;96.90
70762;DHT22;58360;0.000;0.000;2023-09-19T06:19:57;16.10;96.60
70762;DHT22;58360;0.000;0.000;2023-09-19T06:22:22;16.20;96.60
70762;DHT22;58360;0.000;0.000;2023-09-19T06:24:49;16.10;96.60
70762;DHT22;58360;0.000;0.000;2023-09-19T06:27:15;16.10;96.50
70762;DHT22;58360;0.000;0.000;2023-09-19T06:29:43;16.40;96.30
70762;DHT22;58360;0.000;0.000;2023-09-19T06:35:23;16.20;96.20
70762;DHT22;58360;0.000;0.000;2023-09-19T06:40:51;16.50;96.20
70762;DHT22;58360;0.000;0.000;2023-09-19T06:43:18;16.60;95.90
70762;DHT22;58360;0.000;0.000;2023-09-19T06:45:45;16.70;95.90
70762;DHT22;58360;0.000;0.000;2023-09-19T06:48:11;16.80;95.60
70762;DHT22;58360;0.000;0.000;2023-09-19T06:50:37;16.80;95.50
70762;DHT22;58360;0.000;0.000;2023-09-19T06:53:04;16.90;95.30
70762;DHT22;58360;0.000;0.000;2023-09-19T06:58:04;17.10;95.20
70762;DHT22;58360;0.000;0.000;2023-09-19T07:00:31;17.10;95.00
70762;DHT22;58360;0.000;0.000;2023-09-19T07:21:06;17.50;94.60
70762;DHT22;58360;0.000;0.000;2023-09-19T07:26:45;17.70;94.10
70762;DHT22;58360;0.000;0.000;2023-09-19T07:31:57;18.10;93.30
70762;DHT22;58360;0.000;0.000;2023-09-19T07:34:23;18.30;93.60
70762;DHT22;58360;0.000;0.000;2023-09-19T07:36:49;18.50;93.50
70762;DHT22;58360;0.000;0.000;2023-09-19T07:39:15;18.70;93.00
70762;DHT22;58360;0.000;0.000;2023-09-19T07:41:41;18.80;92.70
70762;DHT22;58360;0.000;0.000;2023-09-19T07:44:07;19.00;92.20
70762;DHT22;58360;0.000;0.000;2023-09-19T07:46:35;19.00;92.10
70762;DHT22;58360;0.000;0.000;2023-09-19T07:54:11;19.90;92.50
70762;DHT22;58360;0.000;0.000;2023-09-19T08:17:19;21.40;85.00
70762;DHT22;58360;0.000;0.000;2023-09-19T08:22:32;21.20;84.40
70762;DHT22;58360;0.000;0.000;2023-09-19T08:24:58;21.30;84.90
70762;DHT22;58360;0.000;0.000;2023-09-19T08:27:23;21.60;85.90
70762;DHT22;58360;0.000;0.000;2023-09-19T08:29:52;21.90;83.20
70762;DHT22;58360;0.000;0.000;2023-09-19T08:32:18;22.40;81.30
70762;DHT22;58360;0.000;0.000;2023-09-19T08:34:49;22.50;79.90
70762;DHT22;58360;0.000;0.000;2023-09-19T08:37:14;22.60;80.50
70762;DHT22;58360;0.000;0.000;2023-09-19T08:39:41;22.70;79.60
70762;DHT22;58360;0.000;0.000;2023-09-19T08:42:06;22.90;79.20
70762;DHT22;58360;0.000;0.000;2023-09-19T08:44:35;23.20;78.90
70762;DHT22;58360;0.000;0.000;2023-09-19T08:47:11;23.70;80.90
70762;DHT22;58360;0.000;0.000;2023-09-19T08:55:06;25.10;77.90
70762;DHT22;58360;0.000;0.000;2023-09-19T08:57:35;25.20;74.90
70762;DHT22;58360;0.000;0.000;2023-09-19T09:00:03;25.20;71.70
70762;DHT22;58360;0.000;0.000;2023-09-19T09:02:36;25.00;72.50
70762;DHT22;58360;0.000;0.000;2023-09-19T09:05:03;24.70;71.20
70762;DHT22;58360;0.000;0.000;2023-09-19T09:07:31;24.30;72.30
70762;DHT22;58360;0.000;0.000;2023-09-19T09:10:00;24.00;73.50
70762;DHT22;58360;0.000;0.000;2023-09-19T09:12:25;23.80;74.20
70762;DHT22;58360;0.000;0.000;2023-09-19T09:14:51;23.80;74.90
70762;DHT22;58360;0.000;0.000;2023-09-19T09:17:17;23.90;73.60
70762;DHT22;58360;0.000;0.000;2023-09-19T09:19:48;23.70;73.80
70762;DHT22;58360;0.000;0.000;2023-09-19T09:22:14;23.50;74.50
70762;DHT22;58360;0.000;0.000;2023-09-19T09:27:19;23.40;74.30
70762;DHT22;58360;0.000;0.000;2023-09-19T09:29:46;23.00;74.40
70762;DHT22;58360;0.000;0.000;2023-09-19T09:34:45;22.60;75.60
70762;DHT22;58360;0.000;0.000;2023-09-19T09:37:14;22.60;75.30
70762;DHT22;58360;0.000;0.000;2023-09-19T09:39:40;22.60;76.00
70762;DHT22;58360;0.000;0.000;2023-09-19T09:42:28;22.60;79.30
70762;DHT22;58360;0.000;0.000;2023-09-19T09:50:11;22.60;75.50
70762;DHT22;58360;0.000;0.000;2023-09-19T09:52:46;22.60;75.40
70762;DHT22;58360;0.000;0.000;2023-09-19T09:55:11;23.00;73.70
70762;DHT22;58360;0.000;0.000;2023-09-19T09:57:37;23.60;72.50
70762;DHT22;58360;0.000;0.000;2023-09-19T10:00:06;24.50;71.00
70762;DHT22;58360;0.000;0.000;2023-09-19T10:02:37;25.70;68.30
70762;DHT22;58360;0.000;0.000;2023-09-19T10:05:12;26.80;65.20
70762;DHT22;58360;0.000;0.000;2023-09-19T10:07:54;27.00;65.70
70762;DHT22;58360;0.000;0.000;2023-09-19T10:13:05;27.60;64.50
70762;DHT22;58360;0.000;0.000;2023-09-19T10:15:33;28.40;60.80
70762;DHT22;58360;0.000;0.000;2023-09-19T10:18:04;28.90;59.30
70762;DHT22;58360;0.000;0.000;2023-09-19T10:20:29;29.00;58.50
70762;DHT22;58360;0.000;0.000;2023-09-19T10:22:56;29.50;62.90
70762;DHT22;58360;0.000;0.000;2023-09-19T10:25:28;30.00;58.00
70762;DHT22;58360;0.000;0.000;2023-09-19T10:27:57;30.10;55.00
70762;DHT22;58360;0.000;0.000;2023-09-19T10:30:24;30.00;56.40
70762;DHT22;58360;0.000;0.000;2023-09-19T10:32:55;29.60;55.50
70762;DHT22;58360;0.000;0.000;2023-09-19T10:35:22;29.60;58.00
70762;DHT22;58360;0.000;0.000;2023-09-19T10:37:49;29.80;59.00
70762;DHT22;58360;0.000;0.000;2023-09-19T10:40:15;30.40;54.90
70762;DHT22;58360;0.000;0.000;2023-09-19T10:42:41;30.70;54.50
70762;DHT22;58360;0.000;0.000;2023-09-19T10:45:07;30.80;56.20
70762;DHT22;58360;0.000;0.000;2023-09-19T10:47:38;30.70;53.30
70762;DHT22;58360;0.000;0.000;2023-09-19T10:50:04;30.50;54.10
70762;DHT22;58360;0.000;0.000;2023-09-19T10:52:31;30.30;53.90
70762;DHT22;58360;0.000;0.000;2023-09-19T10:55:00;30.10;54.80
70762;DHT22;58360;0.000;0.000;2023-09-19T10:57:26;30.10;54.10
70762;DHT22;58360;0.000;0.000;2023-09-19T11:00:09;29.90;55.40
70762;DHT22;58360;0.000;0.000;2023-09-19T11:05:37;30.30;54.40
70762;DHT22;58360;0.000;0.000;2023-09-19T11:08:09;30.80;54.20
70762;DHT22;58360;0.000;0.000;2023-09-19T11:10:44;30.90;53.10
70762;DHT22;58360;0.000;0.000;2023-09-19T11:13:26;30.30;53.50
70762;DHT22;58360;0.000;0.000;2023-09-19T11:24:53;28.20;58.80
70762;DHT22;58360;0.000;0.000;2023-09-19T11:26:48;28.00;57.40
70762;DHT22;58360;0.000;0.000;2023-09-19T11:29:25;27.90;58.10
70762;DHT22;58360;0.000;0.000;2023-09-19T11:31:51;27.80;57.80
70762;DHT22;58360;0.000;0.000;2023-09-19T11:37:01;28.90;57.70
70762;DHT22;58360;0.000;0.000;2023-09-19T11:39:29;28.70;56.40
70762;DHT22;58360;0.000;0.000;2023-09-19T11:41:55;28.00;57.50
70762;DHT22;58360;0.000;0.000;2023-09-19T11:46:52;27.30;58.70
70762;DHT22;58360;0.000;0.000;2023-09-19T11:49:19;27.10;58.30
70762;DHT22;58360;0.000;0.000;2023-09-19T11:51:46;26.70;60.50
70762;DHT22;58360;0.000;0.000;2023-09-19T11:54:13;26.60;59.60
70762;DHT22;58360;0.000;0.000;2023-09-19T11:56:53;26.10;60.70
70762;DHT22;58360;0.000;0.000;2023-09-19T11:59:29;25.60;62.30
70762;DHT22;58360;0.000;0.000;2023-09-19T12:01:55;25.40;63.30
70762;DHT22;58360;0.000;0.000;2023-09-19T12:04:33;25.30;63.20
70762;DHT22;58360;0.000;0.000;2023-09-19T12:07:06;25.00;63.20
70762;DHT22;58360;0.000;0.000;2023-09-19T12:09:39;24.40;64.00
70762;DHT22;58360;0.000;0.000;2023-09-19T12:12:06;23.90;66.40
70762;DHT22;58360;0.000;0.000;2023-09-19T12:14:31;23.60;66.60
70762;DHT22;58360;0.000;0.000;2023-09-19T12:16:57;23.50;67.40
70762;DHT22;58360;0.000;0.000;2023-09-19T12:19:25;23.60;68.40
70762;DHT22;58360;0.000;0.000;2023-09-19T12:22:01;23.90;67.40
70762;DHT22;58360;0.000;0.000;2023-09-19T12:24:30;24.50;65.50
70762;DHT22;58360;0.000;0.000;2023-09-19T12:27:03;25.00;64.70
70762;DHT22;58360;0.000;0.000;2023-09-19T12:29:32;25.60;67.60
70762;DHT22;58360;0.000;0.000;2023-09-19T12:32:06;26.10;63.60
70762;DHT22;58360;0.000;0.000;2023-09-19T12:34:32;26.20;61.50
70762;DHT22;58360;0.000;0.000;2023-09-19T12:37:08;25.90;62.80
70762;DHT22;58360;0.000;0.000;2023-09-19T12:40:03;25.80;62.50
70762;DHT22;58360;0.000;0.000;2023-09-19T12:42:40;25.50;63.20
70762;DHT22;58360;0.000;0.000;2023-09-19T12:45:06;25.10;63.60
70762;DHT22;58360;0.000;0.000;2023-09-19T12:47:34;24.80;64.50
70762;DHT22;58360;0.000;0.000;2023-09-19T12:52:35;24.00;68.10
70762;DHT22;58360;0.000;0.000;2023-09-19T12:55:01;23.70;67.10
70762;DHT22;58360;0.000;0.000;2023-09-19T12:57:28;23.50;68.60
70762;DHT22;58360;0.000;0.000;2023-09-19T12:59:53;23.40;68.00
70762;DHT22;58360;0.000;0.000;2023-09-19T13:02:20;23.20;69.40
70762;DHT22;58360;0.000;0.000;2023-09-19T13:04:52;23.10;68.50
70762;DHT22;58360;0.000;0.000;2023-09-19T13:10:04;22.70;69.20
70762;DHT22;58360;0.000;0.000;2023-09-19T13:12:37;22.60;70.50
70762;DHT22;58360;0.000;0.000;2023-09-19T13:15:07;22.60;71.10
70762;DHT22;58360;0.000;0.000;2023-09-19T13:17:46;22.80;72.40
70762;DHT22;58360;0.000;0.000;2023-09-19T13:20:23;22.90;69.90
70762;DHT22;58360;0.000;0.000;2023-09-19T13:22:57;22.80;71.00
70762;DHT22;58360;0.000;0.000;2023-09-19T13:25:33;22.70;70.30
70762;DHT22;58360;0.000;0.000;2023-09-19T13:28:00;22.50;70.50
70762;DHT22;58360;0.000;0.000;2023-09-19T13:30:29;22.20;71.10
70762;DHT22;58360;0.000;0.000;2023-09-19T13:33:06;22.10;72.30
70762;DHT22;58360;0.000;0.000;2023-09-19T13:35:32;22.10;72.70
70762;DHT22;58360;0.000;0.000;2023-09-19T13:37:58;22.10;72.50
70762;DHT22;58360;0.000;0.000;2023-09-19T13:40:24;22.20;73.20
70762;DHT22;58360;0.000;0.000;2023-09-19T13:42:56;22.40;73.50
70762;DHT22;58360;0.000;0.000;2023-09-19T13:45:22;22.40;72.40
70762;DHT22;58360;0.000;0.000;2023-09-19T13:47:49;22.60;72.40
70762;DHT22;58360;0.000;0.000;2023-09-19T13:50:15;22.80;71.90
70762;DHT22;58360;0.000;0.000;2023-09-19T13:52:42;22.80;71.50
70762;DHT22;58360;0.000;0.000;2023-09-19T13:55:08;22.80;71.20
70762;DHT22;58360;0.000;0.000;2023-09-19T13:57:33;22.80;72.00
70762;DHT22;58360;0.000;0.000;2023-09-19T13:59:59;22.90;71.20
70762;DHT22;58360;0.000;0.000;2023-09-19T14:02:24;22.80;72.10
70762;DHT22;58360;0.000;0.000;2023-09-19T14:04:53;23.00;72.30
70762;DHT22;58360;0.000;0.000;2023-09-19T14:07:18;23.70;70.40
70762;DHT22;58360;0.000;0.000;2023-09-19T14:09:45;24.30;69.00
70762;DHT22;58360;0.000;0.000;2023-09-19T14:12:11;24.50;68.70
70762;DHT22;58360;0.000;0.000;2023-09-19T14:14:37;24.30;71.20
70762;DHT22;58360;0.000;0.000;2023-09-19T14:17:03;24.30;69.20
70762;DHT22;58360;0.000;0.000;2023-09-19T14:19:29;24.80;68.20
70762;DHT22;58360;0.000;0.000;2023-09-19T14:21:55;24.80;67.00
70762;DHT22;58360;0.000;0.000;2023-09-19T14:24:20;24.50;67.10
70762;DHT22;58360;0.000;0.000;2023-09-19T14:26:46;24.30;69.30
70762;DHT22;58360;0.000;0.000;2023-09-19T14:29:12;24.70;69.50
70762;DHT22;58360;0.000;0.000;2023-09-19T14:31:38;24.50;68.10
70762;DHT22;58360;0.000;0.000;2023-09-19T14:34:07;24.20;68.30
70762;DHT22;58360;0.000;0.000;2023-09-19T14:36:35;24.50;69.30
70762;DHT22;58360;0.000;0.000;2023-09-19T14:39:00;24.80;67.70
70762;DHT22;58360;0.000;0.000;2023-09-19T14:41:26;25.10;66.90
70762;DHT22;58360;0.000;0.000;2023-09-19T14:43:52;24.80;68.10
70762;DHT22;58360;0.000;0.000;2023-09-19T14:46:18;24.40;69.40
70762;DHT22;58360;0.000;0.000;2023-09-19T14:48:44;24.30;69.40
70762;DHT22;58360;0.000;0.000;2023-09-19T14:51:12;24.10;69.40
70762;DHT22;58360;0.000;0.000;2023-09-19T14:53:38;24.20;69.00
70762;DHT22;58360;0.000;0.000;2023-09-19T14:56:04;24.10;70.20
70762;DHT22;58360;0.000;0.000;2023-09-19T14:58:33;23.90;69.20
70762;DHT22;58360;0.000;0.000;2023-09-19T15:01:17;23.70;69.90
70762;DHT22;58360;0.000;0.000;2023-09-19T15:03:43;23.70;69.80
70762;DHT22;58360;0.000;0.000;2023-09-19T15:06:10;23.40;69.90
70762;DHT22;58360;0.000;0.000;2023-09-19T15:08:38;23.10;70.50
70762;DHT22;58360;0.000;0.000;2023-09-19T15:11:04;22.70;72.40
70762;DHT22;58360;0.000;0.000;2023-09-19T15:13:31;22.50;73.10
70762;DHT22;58360;0.000;0.000;2023-09-19T15:16:00;22.50;72.80
70762;DHT22;58360;0.000;0.000;2023-09-19T15:18:26;22.50;73.40
70762;DHT22;58360;0.000;0.000;2023-09-19T15:20:52;22.50;73.40
70762;DHT22;58360;0.000;0.000;2023-09-19T15:23:17;22.40;73.10
70762;DHT22;58360;0.000;0.000;2023-09-19T15:25:48;22.30;73.70
70762;DHT22;58360;0.000;0.000;2023-09-19T15:28:13;22.20;75.00
70762;DHT22;58360;0.000;0.000;2023-09-19T15:30:39;22.10;74.90
70762;DHT22;58360;0.000;0.000;2023-09-19T15:33:04;22.00;74.80
70762;DHT22;58360;0.000;0.000;2023-09-19T15:35:30;22.00;75.70
70762;DHT22;58360;0.000;0.000;2023-09-19T15:37:55;21.90;75.20
70762;DHT22;58360;0.000;0.000;2023-09-19T15:40:21;21.80;75.40
70762;DHT22;58360;0.000;0.000;2023-09-19T15:42:49;21.80;75.60
70762;DHT22;58360;0.000;0.000;2023-09-19T15:45:15;21.60;76.90
70762;DHT22;58360;0.000;0.000;2023-09-19T15:47:41;21.50;76.70
70762;DHT22;58360;0.000;0.000;2023-09-19T15:50:07;21.60;76.30
70762;DHT22;58360;0.000;0.000;2023-09-19T15:52:35;21.40;76.70
70762;DHT22;58360;0.000;0.000;2023-09-19T15:55:04;21.20;77.40
70762;DHT22;58360;0.000;0.000;2023-09-19T15:57:29;21.20;78.20
70762;DHT22;58360;0.000;0.000;2023-09-19T15:59:56;21.20;78.80
70762;DHT22;58360;0.000;0.000;2023-09-19T16:02:22;21.30;77.40
70762;DHT22;58360;0.000;0.000;2023-09-19T16:10:19;21.20;78.30
70762;DHT22;58360;0.000;0.000;2023-09-19T16:12:44;21.20;78.90
70762;DHT22;58360;0.000;0.000;2023-09-19T16:15:10;21.20;78.30
70762;DHT22;58360;0.000;0.000;2023-09-19T16:17:40;21.40;78.10
70762;DHT22;58360;0.000;0.000;2023-09-19T16:20:06;21.40;77.50
70762;DHT22;58360;0.000;0.000;2023-09-19T16:22:33;21.30;77.90
70762;DHT22;58360;0.000;0.000;2023-09-19T16:24:58;21.20;78.60
70762;DHT22;58360;0.000;0.000;2023-09-19T16:27:24;21.10;78.70
70762;DHT22;58360;0.000;0.000;2023-09-19T16:29:50;21.10;78.80
70762;DHT22;58360;0.000;0.000;2023-09-19T16:32:15;21.20;78.70
70762;DHT22;58360;0.000;0.000;2023-09-19T16:34:41;21.30;78.60
70762;DHT22;58360;0.000;0.000;2023-09-19T16:37:06;21.20;78.10
70762;DHT22;58360;0.000;0.000;2023-09-19T16:39:32;21.10;78.60
70762;DHT22;58360;0.000;0.000;2023-09-19T16:41:59;21.20;79.10
70762;DHT22;58360;0.000;0.000;2023-09-19T16:44:25;21.10;78.80
70762;DHT22;58360;0.000;0.000;2023-09-19T16:46:50;21.10;79.10
70762;DHT22;58360;0.000;0.000;2023-09-19T16:49:16;21.10;79.10
70762;DHT22;58360;0.000;0.000;2023-09-19T16:51:41;21.00;79.60
70762;DHT22;58360;0.000;0.000;2023-09-19T16:54:09;21.10;79.50
70762;DHT22;58360;0.000;0.000;2023-09-19T16:56:34;21.00;79.10
70762;DHT22;58360;0.000;0.000;2023-09-19T17:48:37;20.50;84.60
70762;DHT22;58360;0.000;0.000;2023-09-19T18:20:47;20.20;87.50
70762;DHT22;58360;0.000;0.000;2023-09-19T18:23:13;20.10;88.20
70762;DHT22;58360;0.000;0.000;2023-09-19T18:25:39;20.20;87.60
70762;DHT22;58360;0.000;0.000;2023-09-19T18:31:35;20.10;87.50
70762;DHT22;58360;0.000;0.000;2023-09-19T18:34:02;20.10;87.60
70762;DHT22;58360;0.000;0.000;2023-09-19T18:36:28;20.30;86.50
70762;DHT22;58360;0.000;0.000;2023-09-19T18:42:00;20.20;86.70
70762;DHT22;58360;0.000;0.000;2023-09-19T19:07:31;20.30;85.90
70762;DHT22;58360;0.000;0.000;2023-09-19T19:09:57;20.20;86.00
70762;DHT22;58360;0.000;0.000;2023-09-19T19:12:24;20.20;86.30
70762;DHT22;58360;0.000;0.000;2023-09-19T19:14:49;20.30;85.40
70762;DHT22;58360;0.000;0.000;2023-09-19T19:17:15;20.40;85.20
70762;DHT22;58360;0.000;0.000;2023-09-19T19:19:41;20.40;85.40
70762;DHT22;58360;0.000;0.000;2023-09-19T19:22:07;20.40;84.90
70762;DHT22;58360;0.000;0.000;2023-09-19T19:24:33;20.40;85.30
70762;DHT22;58360;0.000;0.000;2023-09-19T19:26:59;20.30;85.60
70762;DHT22;58360;0.000;0.000;2023-09-19T19:29:24;20.40;85.50
70762;DHT22;58360;0.000;0.000;2023-09-19T19:31:50;20.40;85.00
70762;DHT22;58360;0.000;0.000;2023-09-19T19:34:17;20.50;84.60
70762;DHT22;58360;0.000;0.000;2023-09-19T19:36:43;20.50;84.90
70762;DHT22;58360;0.000;0.000;2023-09-19T19:39:09;20.50;84.20
70762;DHT22;58360;0.000;0.000;2023-09-19T19:41:38;20.50;85.80
70762;DHT22;58360;0.000;0.000;2023-09-19T19:44:04;20.40;84.40
70762;DHT22;58360;0.000;0.000;2023-09-19T21:04:20;20.50;85.00
70762;DHT22;58360;0.000;0.000;2023-09-19T21:06:46;20.40;85.60
70762;DHT22;58360;0.000;0.000;2023-09-19T21:09:11;20.50;85.40
70762;DHT22;58360;0.000;0.000;2023-09-19T21:11:37;20.50;85.20
70762;DHT22;58360;0.000;0.000;2023-09-19T21:14:02;20.50;85.00
70762;DHT22;58360;0.000;0.000;2023-09-19T21:16:29;20.40;85.60
70762;DHT22;58360;0.000;0.000;2023-09-19T21:18:55;20.50;84.90
70762;DHT22;58360;0.000;0.000;2023-09-19T21:21:20;20.50;85.20
70762;DHT22;58360;0.000;0.000;2023-09-19T21:23:46;20.50;85.50
70762;DHT22;58360;0.000;0.000;2023-09-19T21:26:12;20.50;86.20
70762;DHT22;58360;0.000;0.000;2023-09-19T22:15:05;20.10;87.50
70762;DHT22;58360;0.000;0.000;2023-09-19T23:19:59;19.70;90.30
70762;DHT22;58360;0.000;0.000;2023-09-19T23:22:35;19.70;90.30
70762;DHT22;58360;0.000;0.000;2023-09-19T23:25:01;19.70;90.20
70762;DHT22;58360;0.000;0.000;2023-09-19T23:27:41;19.70;90.30
70762;DHT22;58360;0.000;0.000;2023-09-19T23:30:12;19.60;90.60
70762;DHT22;58360;0.000;0.000;2023-09-19T23:32:38;19.50;90.70
70762;DHT22;58360;0.000;0.000;2023-09-19T23:35:04;19.50;90.90
70762;DHT22;58360;0.000;0.000;2023-09-19T23:37:29;19.70;90.50
70762;DHT22;58360;0.000;0.000;2023-09-19T23:39:56;19.60;90.80
70762;DHT22;58360;0.000;0.000;2023-09-19T23:42:22;19.60;90.60
